Time;durP1;ratioP1;P1;durP2;ratioP2;P2;SDS_P1;SDS_P2;PMS_P1;PMS_P2;Temp;Humidity;BMP_temperature;BMP_pressure;BME280_temperature;BME280_humidity;BME280_pressure;Samples;Min_cycle;Max_cycle;Signal;HPM_P1;HPM_P2
2022/03/22 00:00:49;;;;;;;6.03;5.43;;;19.00;49.40;20.00;102297.00;;;;4991700;28;20637;-46
2022/03/22 00:03:16;;;;;;;6.03;5.43;;;18.90;49.40;20.00;102290.00;;;;4991050;28;20603;-47
2022/03/22 00:05:42;;;;;;;7.53;5.70;;;18.90;49.30;19.90;102298.00;;;;4990937;28;20180;-48
2022/03/22 00:08:09;;;;;;;5.90;5.30;;;18.90;49.30;20.00;102295.00;;;;4989434;28;20211;-46
2022/03/22 00:10:36;;;;;;;6.00;5.20;;;18.90;49.40;20.00;102293.00;;;;4990484;28;20212;-49
2022/03/22 00:13:05;;;;;;;5.67;5.10;;;18.90;49.40;19.90;102286.00;;;;4990798;28;20204;-50
2022/03/22 00:15:32;;;;;;;5.53;5.00;;;18.90;49.40;19.90;102294.00;;;;4991027;28;20270;-47
2022/03/22 00:17:58;;;;;;;5.57;5.07;;;18.90;49.30;19.90;102301.00;;;;4990618;28;20246;-49
2022/03/22 00:20:23;;;;;;;6.00;5.50;;;18.90;49.30;19.90;102302.00;;;;4990424;28;20644;-49
2022/03/22 00:22:49;;;;;;;5.53;5.07;;;18.90;49.40;19.90;102281.00;;;;4990257;28;20184;-48
2022/03/22 00:25:16;;;;;;;5.90;5.40;;;18.90;49.50;19.90;102299.00;;;;4990686;28;20180;-50
2022/03/22 00:27:52;;;;;;;5.77;5.27;;;18.90;49.40;19.90;102303.00;;;;4989389;28;20486;-45
2022/03/22 00:30:32;;;;;;;6.13;5.57;;;18.90;49.40;19.90;102298.00;;;;4990364;28;20194;-46
2022/03/22 00:33:00;;;;;;;5.87;5.33;;;18.80;49.40;19.80;102300.00;;;;4989073;28;20192;-46
2022/03/22 00:35:38;;;;;;;5.30;4.90;;;18.80;49.20;19.80;102304.00;;;;4989951;28;20172;-46
2022/03/22 00:38:08;;;;;;;5.97;5.30;;;18.90;49.50;19.80;102303.00;;;;4992070;28;20802;-47
2022/03/22 00:40:34;;;;;;;8.10;5.03;;;18.80;49.50;19.80;102312.00;;;;4993409;28;20153;-46
2022/03/22 00:43:00;;;;;;;6.10;5.50;;;18.80;49.50;19.80;102303.00;;;;4990468;28;20179;-46
2022/03/22 00:45:28;;;;;;;8.37;5.13;;;18.70;49.60;19.50;102305.00;;;;4990827;28;20187;-46
2022/03/22 00:47:55;;;;;;;8.83;5.20;;;18.70;49.60;19.80;102316.00;;;;4989141;28;20297;-45
2022/03/22 00:50:23;;;;;;;5.73;5.10;;;18.70;49.60;19.80;102302.00;;;;4989909;28;20183;-49
2022/03/22 00:52:49;;;;;;;6.47;4.90;;;18.70;49.70;19.80;102304.00;;;;4990172;28;20220;-47
2022/03/22 00:55:15;;;;;;;9.90;5.20;;;18.70;49.70;19.80;102308.00;;;;4989295;28;20172;-45
2022/03/22 00:57:42;;;;;;;6.10;5.50;;;18.70;49.70;19.70;102311.00;;;;4989708;28;20196;-49
2022/03/22 01:00:10;;;;;;;5.70;5.10;;;18.60;49.60;19.70;102298.00;;;;4989759;28;20266;-47
2022/03/22 01:02:45;;;;;;;5.67;5.17;;;18.70;49.70;19.70;102296.00;;;;4989870;28;20334;-45
2022/03/22 01:05:13;;;;;;;5.53;4.93;;;18.60;49.60;19.70;102306.00;;;;4989825;28;20176;-47
2022/03/22 01:07:40;;;;;;;5.23;4.80;;;18.60;49.60;19.60;102301.00;;;;4989956;28;20207;-45
2022/03/22 01:10:07;;;;;;;5.30;4.90;;;18.60;49.60;19.60;102299.00;;;;4987378;28;20250;-47
2022/03/22 01:12:34;;;;;;;6.10;5.20;;;18.60;49.60;19.60;102294.00;;;;4989549;28;20291;-46
2022/03/22 01:15:01;;;;;;;5.80;5.20;;;18.50;49.60;19.60;102296.00;;;;4989395;28;20157;-48
2022/03/22 01:17:26;;;;;;;5.80;5.30;;;18.50;49.60;19.50;102290.00;;;;4989595;28;20418;-46
2022/03/22 01:19:52;;;;;;;6.10;5.27;;;18.50;49.60;19.50;102294.00;;;;4989408;28;20822;-49
2022/03/22 01:22:18;;;;;;;6.53;5.23;;;18.40;49.60;19.50;102293.00;;;;4989399;28;20227;-49
2022/03/22 01:24:44;;;;;;;6.00;5.50;;;18.40;49.60;19.50;102301.00;;;;4989721;28;20186;-46
2022/03/22 01:27:10;;;;;;;5.30;4.90;;;18.40;49.60;19.50;102286.00;;;;4988184;28;20196;-49
2022/03/22 01:29:37;;;;;;;5.73;5.20;;;18.40;49.60;19.50;102298.00;;;;4989265;28;20191;-48
2022/03/22 01:32:04;;;;;;;5.47;4.97;;;18.40;49.60;19.50;102288.00;;;;4989453;28;20200;-49
2022/03/22 01:34:30;;;;;;;5.83;5.33;;;18.40;49.60;19.40;102297.00;;;;4989570;28;20187;-47
2022/03/22 01:36:55;;;;;;;5.67;5.20;;;18.40;49.60;19.40;102290.00;;;;4988947;28;20648;-47
2022/03/22 01:39:21;;;;;;;5.50;5.00;;;18.30;49.60;19.40;102287.00;;;;4988214;28;20168;-45
2022/03/22 01:41:47;;;;;;;5.90;5.00;;;18.30;49.50;19.40;102291.00;;;;4989269;28;20182;-49
2022/03/22 01:44:13;;;;;;;5.77;5.27;;;18.30;49.50;19.40;102283.00;;;;4989404;28;20229;-47
2022/03/22 01:46:38;;;;;;;5.23;4.83;;;18.30;49.50;19.30;102289.00;;;;4988583;28;20183;-47
2022/03/22 01:49:04;;;;;;;5.60;5.10;;;18.30;49.60;19.30;102294.00;;;;4987702;28;20370;-47
2022/03/22 01:51:33;;;;;;;5.50;5.00;;;18.30;49.60;19.30;102296.00;;;;4989187;28;20204;-46
2022/03/22 01:53:59;;;;;;;5.17;4.70;;;18.20;49.50;19.30;102279.00;;;;4988379;28;20470;-48
2022/03/22 01:56:25;;;;;;;5.40;5.00;;;18.30;49.50;19.30;102285.00;;;;4992956;28;20171;-47
2022/03/22 01:58:50;;;;;;;5.47;5.07;;;18.20;49.40;19.30;102269.00;;;;4992891;28;20227;-47
2022/03/22 02:06:47;;;;;;;5.23;4.83;;;18.20;49.50;19.20;102259.00;;;;4987460;28;20245;-48
2022/03/22 02:09:13;;;;;;;5.20;4.80;;;18.20;49.60;19.20;102284.00;;;;4987058;28;20427;-47
2022/03/22 02:11:39;;;;;;;5.13;4.73;;;18.20;49.50;19.20;102282.00;;;;4988114;28;20551;-46
2022/03/22 02:14:05;;;;;;;5.40;5.00;;;18.20;49.60;19.20;102283.00;;;;4988390;28;20182;-47
2022/03/22 02:16:31;;;;;;;5.40;5.00;;;18.20;49.60;19.20;102279.00;;;;4988260;28;20265;-48
2022/03/22 02:18:57;;;;;;;5.37;4.97;;;18.10;49.50;19.20;102278.00;;;;4987235;28;20313;-47
2022/03/22 02:21:23;;;;;;;5.20;4.80;;;18.10;49.60;19.20;102285.00;;;;4987041;28;20229;-48
2022/03/22 02:23:56;;;;;;;5.40;5.00;;;18.10;49.50;19.10;102281.00;;;;4986865;28;20182;-48
2022/03/22 02:26:23;;;;;;;5.60;5.10;;;18.10;49.60;19.10;102287.00;;;;4988437;28;20227;-49
2022/03/22 02:28:53;;;;;;;5.80;5.30;;;18.10;49.60;19.10;102280.00;;;;4992619;28;20207;-47
2022/03/22 02:31:20;;;;;;;5.67;5.17;;;18.10;49.60;19.10;102281.00;;;;4988415;28;20240;-47
2022/03/22 02:33:46;;;;;;;5.00;4.60;;;18.10;49.60;19.10;102278.00;;;;4989004;28;20183;-48
2022/03/22 02:36:11;;;;;;;5.27;4.87;;;18.00;49.60;19.10;102270.00;;;;4986385;28;20523;-48
2022/03/22 02:38:37;;;;;;;5.20;4.80;;;18.00;49.60;19.10;102277.00;;;;4987904;28;20192;-46
2022/03/22 02:41:04;;;;;;;5.20;4.70;;;18.00;49.60;19.10;102274.00;;;;4987970;28;20186;-47
2022/03/22 02:43:30;;;;;;;5.10;4.70;;;18.00;49.60;19.00;102275.00;;;;4987165;28;20262;-48
2022/03/22 02:45:56;;;;;;;5.23;4.83;;;18.00;49.60;19.00;102274.00;;;;4987765;28;20180;-46
2022/03/22 02:48:21;;;;;;;4.90;4.50;;;17.90;49.60;19.00;102273.00;;;;4987560;28;20324;-47
2022/03/22 02:50:47;;;;;;;5.23;4.73;;;18.00;49.60;19.00;102275.00;;;;4988136;28;20542;-48
2022/03/22 02:53:13;;;;;;;5.23;4.83;;;17.90;49.60;19.00;102272.00;;;;4993368;28;20219;-48
2022/03/22 02:55:39;;;;;;;5.07;4.70;;;17.90;49.60;18.80;102278.00;;;;4998209;28;20177;-49
2022/03/22 02:58:05;;;;;;;5.23;4.83;;;17.90;49.60;19.00;102285.00;;;;4994768;28;20203;-46
2022/03/22 03:00:30;;;;;;;5.47;5.07;;;17.90;49.70;19.00;102279.00;;;;4987944;28;20690;-47
2022/03/22 03:02:56;;;;;;;5.30;4.90;;;17.90;49.70;18.90;102274.00;;;;4988244;28;20179;-48
2022/03/22 03:05:22;;;;;;;5.03;4.63;;;17.90;49.70;19.00;102282.00;;;;4986798;28;20183;-46
2022/03/22 03:07:49;;;;;;;5.13;4.73;;;17.90;49.70;19.00;102281.00;;;;4987631;28;20209;-47
2022/03/22 03:10:15;;;;;;;5.20;4.80;;;17.90;49.70;18.90;102280.00;;;;4985123;28;20672;-47
2022/03/22 03:12:41;;;;;;;5.73;5.23;;;17.90;49.70;18.90;102273.00;;;;4986190;28;20260;-50
2022/03/22 03:15:08;;;;;;;5.20;4.73;;;17.80;49.70;18.90;102276.00;;;;4987773;28;20174;-47
2022/03/22 03:17:34;;;;;;;5.20;4.70;;;17.80;49.80;18.90;102283.00;;;;4987651;28;20190;-48
2022/03/22 03:20:00;;;;;;;5.30;4.90;;;17.90;49.90;18.90;102281.00;;;;4987326;28;20666;-49
2022/03/22 03:22:26;;;;;;;5.17;4.77;;;17.80;49.90;18.90;102275.00;;;;4987848;28;20272;-46
2022/03/22 03:24:51;;;;;;;5.33;4.93;;;17.80;49.80;18.90;102277.00;;;;4987650;28;20184;-46
2022/03/22 03:27:17;;;;;;;5.77;5.27;;;17.80;49.90;18.90;102283.00;;;;4987370;28;20355;-48
2022/03/22 03:29:43;;;;;;;5.40;5.00;;;17.80;49.80;18.80;102282.00;;;;4987349;28;20254;-48
2022/03/22 03:32:09;;;;;;;5.10;4.70;;;17.70;49.70;18.80;102283.00;;;;4987248;28;20202;-48
2022/03/22 03:34:35;;;;;;;5.03;4.60;;;17.80;49.80;18.80;102277.00;;;;4987416;28;20170;-46
2022/03/22 03:37:01;;;;;;;5.13;4.73;;;17.80;49.80;18.80;102284.00;;;;4985869;28;20193;-48
2022/03/22 03:39:27;;;;;;;5.10;4.70;;;17.70;49.70;18.80;102220.00;;;;4986086;28;20182;-47
2022/03/22 03:41:59;;;;;;;5.27;4.87;;;17.80;49.80;18.80;102283.00;;;;4987390;28;20199;-47
2022/03/22 03:47:12;;;;;;;5.43;4.93;;;17.70;49.70;18.80;102287.00;;;;4986983;28;20207;-46
2022/03/22 03:49:45;;;;;;;5.37;4.97;;;17.70;49.70;18.80;102282.00;;;;4987543;28;20176;-47
2022/03/22 03:52:18;;;;;;;5.13;4.73;;;17.70;49.70;18.70;102286.00;;;;4987428;28;20189;-46
2022/03/22 03:54:44;;;;;;;5.03;4.63;;;17.70;49.70;18.70;102293.00;;;;4988059;28;20602;-47
2022/03/22 03:57:10;;;;;;;5.20;4.80;;;17.70;49.70;18.70;102289.00;;;;4986473;28;20280;-48
2022/03/22 03:59:37;;;;;;;5.13;4.73;;;17.60;49.70;18.70;102286.00;;;;4986565;28;20178;-45
2022/03/22 04:02:03;;;;;;;4.53;4.13;;;17.60;49.70;18.70;102284.00;;;;4986982;28;20184;-47
2022/03/22 04:04:29;;;;;;;4.97;4.57;;;17.60;49.70;18.70;102296.00;;;;4987679;28;20172;-48
2022/03/22 04:06:54;;;;;;;5.20;4.80;;;17.60;49.70;18.70;102288.00;;;;4986950;28;20680;-47
2022/03/22 04:09:20;;;;;;;5.07;4.67;;;17.60;49.70;18.70;102293.00;;;;4987005;28;20188;-48
2022/03/22 04:11:46;;;;;;;5.10;4.70;;;17.60;49.70;18.70;102291.00;;;;4987079;28;20196;-46
2022/03/22 04:14:12;;;;;;;5.40;4.90;;;17.60;49.70;18.70;102298.00;;;;4988488;28;20204;-47
2022/03/22 04:16:38;;;;;;;5.00;4.60;;;17.50;49.60;18.60;102295.00;;;;4988965;28;20176;-46
2022/03/22 04:19:07;;;;;;;5.00;4.60;;;17.60;49.70;18.60;102292.00;;;;4987133;28;20184;-46
2022/03/22 04:21:36;;;;;;;4.90;4.50;;;17.50;49.60;18.60;102298.00;;;;4987748;28;20516;-47
2022/03/22 04:24:07;;;;;;;4.93;4.53;;;17.50;49.60;18.60;102295.00;;;;4991062;28;20202;-47
2022/03/22 04:26:39;;;;;;;5.20;4.80;;;17.50;49.60;18.60;102293.00;;;;4988883;28;20158;-46
2022/03/22 04:34:34;;;;;;;6.27;4.87;;;17.50;49.60;18.50;102292.00;;;;4990246;28;20184;-48
2022/03/22 04:37:00;;;;;;;8.63;5.03;;;17.50;49.80;18.50;102296.00;;;;4989852;28;20590;-49
2022/03/22 04:39:28;;;;;;;8.00;4.40;;;17.50;49.80;18.50;102291.00;;;;4990583;28;20462;-47
2022/03/22 04:41:53;;;;;;;6.43;4.57;;;17.40;49.70;18.50;102293.00;;;;4994316;28;20169;-51
2022/03/22 04:44:19;;;;;;;8.13;4.90;;;17.50;49.60;18.50;102296.00;;;;4996998;28;20273;-50
2022/03/22 04:46:45;;;;;;;5.10;4.57;;;17.50;49.60;18.50;102299.00;;;;4991466;28;20176;-47
2022/03/22 04:49:11;;;;;;;5.53;4.60;;;17.50;49.50;18.50;102299.00;;;;4990424;28;20204;-47
2022/03/22 04:57:05;;;;;;;5.40;4.87;;;17.40;49.40;18.40;102310.00;;;;4989819;28;20670;-47
2022/03/22 04:59:31;;;;;;;5.13;4.63;;;17.40;49.40;18.40;102301.00;;;;4989063;28;20204;-47
2022/03/22 05:01:57;;;;;;;7.00;5.20;;;17.30;49.20;18.40;102294.00;;;;4989379;28;20227;-48
2022/03/22 05:04:23;;;;;;;5.20;4.70;;;17.30;49.20;18.40;102301.00;;;;4989846;28;20169;-48
2022/03/22 05:06:48;;;;;;;6.73;4.90;;;17.30;49.20;18.40;102301.00;;;;4981695;28;20460;-49
2022/03/22 05:09:14;;;;;;;5.50;4.57;;;17.30;49.20;18.40;102306.00;;;;4988636;28;20271;-48
2022/03/22 05:11:40;;;;;;;5.30;4.80;;;17.30;49.20;18.40;102307.00;;;;4989529;28;20211;-47
2022/03/22 05:14:06;;;;;;;5.83;4.60;;;17.30;49.20;18.30;102307.00;;;;4989686;28;20303;-47
2022/03/22 05:16:32;;;;;;;4.70;4.20;;;17.20;49.20;18.30;102308.00;;;;4988544;28;20187;-47
2022/03/22 05:18:58;;;;;;;5.17;4.67;;;17.20;49.10;18.30;102312.00;;;;4989861;28;20181;-48
2022/03/22 05:21:24;;;;;;;5.20;4.70;;;17.20;49.10;18.30;102319.00;;;;4989310;28;20177;-49
2022/03/22 05:23:51;;;;;;;5.50;4.80;;;17.20;49.10;18.30;102312.00;;;;4989428;28;20537;-47
2022/03/22 05:26:16;;;;;;;5.00;4.20;;;17.20;49.00;18.30;102322.00;;;;5003468;28;20184;-48
2022/03/22 05:28:43;;;;;;;4.70;4.30;;;17.20;49.00;18.30;102325.00;;;;4988673;28;20218;-49
2022/03/22 05:31:10;;;;;;;6.60;4.53;;;17.20;48.90;18.30;102319.00;;;;4989045;28;20582;-48
2022/03/22 05:33:36;;;;;;;5.47;4.53;;;17.20;48.90;18.20;102253.00;;;;5003932;28;20196;-48
2022/03/22 05:36:03;;;;;;;7.20;5.07;;;17.10;49.00;18.20;102332.00;;;;4988980;28;20200;-48
2022/03/22 05:38:29;;;;;;;5.13;4.63;;;17.10;49.00;18.20;102336.00;;;;5003886;28;20235;-50
2022/03/22 05:40:55;;;;;;;6.83;4.90;;;17.10;48.90;18.20;102332.00;;;;4989527;28;20177;-50
2022/03/22 05:43:21;;;;;;;7.93;4.70;;;17.10;49.50;18.20;102335.00;;;;4988907;28;20171;-48
2022/03/22 05:45:48;;;;;;;6.53;5.00;;;17.10;48.90;18.20;102332.00;;;;4988689;28;20173;-49
2022/03/22 05:48:26;;;;;;;6.10;4.87;;;17.10;48.90;18.20;102336.00;;;;4988838;28;20607;-47
2022/03/22 05:50:51;;;;;;;5.63;5.13;;;17.10;48.80;18.10;102332.00;;;;5003508;28;20557;-46
2022/03/22 05:53:17;;;;;;;6.10;5.43;;;17.00;48.60;18.20;102340.00;;;;4988116;28;20192;-47
2022/03/22 05:55:43;;;;;;;13.47;5.93;;;17.00;48.60;18.20;102333.00;;;;4988619;28;20168;-45
2022/03/22 05:58:09;;;;;;;8.10;5.50;;;17.10;48.60;18.10;102338.00;;;;4988362;28;20196;-48
2022/03/22 06:00:34;;;;;;;6.57;5.00;;;17.00;48.50;18.10;102340.00;;;;5004851;28;20653;-47
2022/03/22 06:03:00;;;;;;;9.33;5.33;;;17.10;48.60;18.10;102341.00;;;;4989217;28;20691;-48
2022/03/22 06:05:28;;;;;;;15.07;6.00;;;17.00;48.40;18.10;102343.00;;;;4988480;28;20745;-47
2022/03/22 06:07:54;;;;;;;13.93;5.83;;;17.00;48.40;18.10;102336.00;;;;4988006;28;20200;-47
2022/03/22 06:10:20;;;;;;;10.73;5.60;;;17.00;48.50;18.10;102343.00;;;;4986555;28;20199;-49
2022/03/22 06:12:53;;;;;;;7.97;5.40;;;17.00;48.50;18.10;102344.00;;;;4988456;28;20581;-48
2022/03/22 06:15:20;;;;;;;10.33;5.90;;;17.00;48.50;18.10;102353.00;;;;4988105;28;20177;-47
2022/03/22 06:17:56;;;;;;;11.37;6.23;;;16.90;48.40;18.00;102351.00;;;;4988309;28;20353;-47
2022/03/22 06:20:27;;;;;;;11.73;6.23;;;16.90;48.40;18.00;102351.00;;;;5001862;28;20164;-46
2022/03/22 06:22:53;;;;;;;10.50;6.27;;;17.00;48.50;18.00;102357.00;;;;4987403;28;20223;-47
2022/03/22 06:25:19;;;;;;;12.43;5.87;;;16.90;48.40;18.00;102313.00;;;;4987523;28;20181;-47
2022/03/22 06:27:47;;;;;;;10.23;6.23;;;16.90;48.40;18.00;102348.00;;;;4986929;28;20188;-46
2022/03/22 06:30:13;;;;;;;9.80;5.57;;;16.90;48.20;18.00;102365.00;;;;4987831;28;20690;-47
2022/03/22 06:32:45;;;;;;;7.37;5.93;;;16.90;48.20;18.00;102340.00;;;;4987445;28;20192;-46
2022/03/22 06:35:12;;;;;;;8.27;6.33;;;16.90;47.90;18.00;102354.00;;;;4987836;28;20235;-48
2022/03/22 06:37:38;;;;;;;9.17;6.00;;;16.80;47.90;18.00;102371.00;;;;4987468;28;20223;-46
2022/03/22 06:40:08;;;;;;;7.83;6.20;;;16.80;47.80;17.90;102361.00;;;;4987895;28;20203;-48
2022/03/22 06:42:34;;;;;;;8.70;6.03;;;16.80;47.70;17.90;102363.00;;;;4987763;28;20188;-48
2022/03/22 06:45:00;;;;;;;7.70;6.50;;;16.80;47.60;17.90;102365.00;;;;4986521;28;20184;-48
2022/03/22 06:47:26;;;;;;;7.30;6.17;;;16.80;47.60;17.90;102364.00;;;;4986180;28;20200;-48
2022/03/22 06:49:51;;;;;;;9.27;6.53;;;16.80;47.60;17.90;102365.00;;;;4987745;28;20452;-49
2022/03/22 06:52:17;;;;;;;6.97;5.80;;;16.80;47.60;17.90;102374.00;;;;4986917;28;20188;-46
2022/03/22 06:54:43;;;;;;;6.70;6.10;;;16.80;47.60;17.90;102375.00;;;;4987094;28;20164;-48
2022/03/22 06:57:08;;;;;;;6.60;5.80;;;16.80;47.60;17.90;102366.00;;;;4987237;28;20189;-48
2022/03/22 06:59:34;;;;;;;6.53;5.93;;;16.70;47.50;17.90;102376.00;;;;4987977;28;20207;-48
2022/03/22 07:02:00;;;;;;;6.67;6.07;;;16.70;47.50;17.80;102381.00;;;;4987527;28;20179;-46
2022/03/22 07:04:27;;;;;;;7.83;5.80;;;16.70;47.50;17.80;102382.00;;;;4987957;28;20173;-46
2022/03/22 07:06:53;;;;;;;6.67;6.07;;;16.70;47.40;17.80;102372.00;;;;4989365;28;20203;-48
2022/03/22 07:09:19;;;;;;;7.00;6.30;;;16.70;47.50;17.80;102371.00;;;;4988522;28;20670;-46
2022/03/22 07:11:49;;;;;;;7.07;6.37;;;16.70;47.20;17.80;102376.00;;;;4987017;28;20192;-48
2022/03/22 07:14:20;;;;;;;7.13;6.23;;;16.70;47.30;17.80;102369.00;;;;4987601;28;20661;-48
2022/03/22 07:16:47;;;;;;;6.47;5.83;;;16.70;47.20;17.80;102368.00;;;;4987616;28;20165;-48
2022/03/22 07:19:16;;;;;;;6.37;5.77;;;16.70;47.30;17.80;102369.00;;;;4987712;28;20248;-46
2022/03/22 07:21:43;;;;;;;6.47;5.93;;;16.70;47.40;17.80;102377.00;;;;4985630;28;20560;-48
2022/03/22 07:24:09;;;;;;;6.60;6.00;;;16.70;47.50;17.70;102372.00;;;;4985812;28;20172;-47
2022/03/22 07:26:35;;;;;;;7.30;6.00;;;16.60;47.40;17.70;102375.00;;;;4987126;28;20196;-47
2022/03/22 07:29:00;;;;;;;6.77;6.07;;;16.60;47.20;17.70;102387.00;;;;4985851;28;20206;-47
2022/03/22 07:31:26;;;;;;;6.60;6.00;;;16.70;47.40;17.70;102387.00;;;;4985728;28;20183;-48
2022/03/22 07:33:52;;;;;;;7.47;5.87;;;16.70;47.50;17.70;102387.00;;;;4986493;28;20173;-47
2022/03/22 07:36:18;;;;;;;6.30;5.70;;;16.60;47.40;17.70;102387.00;;;;4986669;28;20639;-48
2022/03/22 07:38:43;;;;;;;6.10;5.50;;;16.60;47.40;17.70;102383.00;;;;4986891;28;20196;-46
2022/03/22 07:41:10;;;;;;;7.23;5.67;;;16.60;47.00;17.70;102382.00;;;;4986924;28;20251;-46
2022/03/22 07:43:37;;;;;;;7.07;5.50;;;16.70;46.90;17.70;102384.00;;;;4987091;28;20199;-46
2022/03/22 07:46:04;;;;;;;9.43;6.00;;;16.80;47.00;17.70;102377.00;;;;4987013;28;20183;-46
2022/03/22 07:48:29;;;;;;;7.13;5.90;;;17.00;46.90;17.80;102389.00;;;;4987631;28;20296;-47
2022/03/22 07:53:41;;;;;;;5.97;5.27;;;17.60;46.90;18.10;102383.00;;;;4986595;28;20246;-47
2022/03/22 07:56:07;;;;;;;7.27;5.37;;;18.00;46.70;18.20;102376.00;;;;4987021;28;20169;-47
2022/03/22 07:58:32;;;;;;;8.00;5.10;;;18.30;46.40;18.40;102388.00;;;;4989354;28;20211;-48
2022/03/22 08:00:58;;;;;;;8.07;5.23;;;18.60;46.00;18.60;102389.00;;;;4774389;28;20203;-50
2022/03/22 08:03:25;;;;;;;5.83;5.20;;;19.00;45.80;18.80;102388.00;;;;4992334;28;20650;-46
2022/03/22 08:05:51;;;;;;;8.33;5.10;;;19.10;45.60;19.00;102392.00;;;;4995122;28;20178;-49
2022/03/22 08:08:17;;;;;;;6.00;5.37;;;19.20;45.60;19.10;102384.00;;;;5010249;28;20195;-46
2022/03/22 08:10:44;;;;;;;7.27;5.43;;;19.30;45.70;19.20;102393.00;;;;5005653;28;20297;-47
2022/03/22 08:13:10;;;;;;;6.63;5.50;;;19.40;45.80;19.40;102392.00;;;;4990393;28;20705;-46
2022/03/22 08:15:36;;;;;;;6.33;4.90;;;19.40;45.90;19.40;102391.00;;;;4990227;28;20179;-46
2022/03/22 08:18:01;;;;;;;6.37;4.70;;;19.40;46.00;19.50;102388.00;;;;4990575;28;20203;-47
2022/03/22 08:20:30;;;;;;;7.30;5.10;;;19.40;46.20;19.50;102387.00;;;;4990521;28;20172;-47
2022/03/22 08:23:04;;;;;;;5.30;4.80;;;19.40;46.40;19.60;102389.00;;;;4990145;28;20168;-48
2022/03/22 08:25:39;;;;;;;6.33;4.80;;;19.40;46.50;19.60;102395.00;;;;4990636;28;20164;-47
2022/03/22 08:28:09;;;;;;;6.40;4.80;;;19.40;46.70;19.70;102392.00;;;;4990070;28;20564;-47
2022/03/22 08:30:36;;;;;;;6.73;4.87;;;19.40;46.80;19.70;102373.00;;;;4989934;28;20207;-48
2022/03/22 08:33:03;;;;;;;5.27;4.77;;;19.40;46.90;19.70;102384.00;;;;4989860;28;20279;-47
2022/03/22 08:35:29;;;;;;;7.53;4.90;;;19.40;47.10;19.70;102395.00;;;;4989970;28;20250;-48
2022/03/22 08:37:55;;;;;;;5.40;4.90;;;19.40;47.10;19.80;102383.00;;;;4989486;28;20276;-47
2022/03/22 08:40:21;;;;;;;5.60;5.00;;;19.40;47.30;19.80;102386.00;;;;4990077;28;20695;-46
2022/03/22 08:42:49;;;;;;;5.00;4.50;;;19.30;47.30;19.80;102387.00;;;;4989881;28;20271;-46
2022/03/22 08:45:16;;;;;;;5.23;4.70;;;19.30;47.50;19.80;102390.00;;;;4989982;28;20207;-46
2022/03/22 08:47:45;;;;;;;6.30;4.77;;;19.30;47.50;19.80;102389.00;;;;4989538;28;20207;-48
2022/03/22 08:50:14;;;;;;;10.70;4.70;;;19.30;47.80;19.80;102386.00;;;;4989375;28;20212;-46
2022/03/22 08:52:41;;;;;;;7.43;5.00;;;19.30;48.00;19.80;102381.00;;;;4988434;28;20255;-47
2022/03/22 08:55:12;;;;;;;7.13;5.00;;;19.30;48.00;19.80;102390.00;;;;4997523;28;20532;-49
2022/03/22 08:57:42;;;;;;;7.93;4.87;;;19.30;48.10;19.80;102389.00;;;;5009463;28;20249;-48
2022/03/22 09:00:12;;;;;;;8.73;5.33;;;19.20;48.10;19.80;102386.00;;;;4793460;28;21996;-48
2022/03/22 09:02:39;;;;;;;14.23;5.83;;;19.20;48.20;19.80;102392.00;;;;4990313;28;20185;-48
2022/03/22 09:07:53;;;;;;;11.30;5.87;;;19.20;48.30;19.80;102375.00;;;;5009512;28;20221;-47
2022/03/22 09:10:23;;;;;;;13.17;6.07;;;19.20;48.40;19.80;102374.00;;;;5010348;28;20195;-50
2022/03/22 09:12:49;;;;;;;11.93;5.97;;;19.20;48.40;19.80;102371.00;;;;4993505;28;20194;-50
2022/03/22 09:15:16;;;;;;;11.20;6.40;;;19.10;48.50;19.80;102376.00;;;;5010799;28;20644;-48
2022/03/22 09:17:42;;;;;;;15.83;6.20;;;19.10;48.50;19.80;102385.00;;;;5010104;28;20207;-48
2022/03/22 09:20:13;;;;;;;11.20;5.80;;;19.10;48.60;19.80;102382.00;;;;5001703;28;20226;-50
2022/03/22 09:22:43;;;;;;;11.03;6.00;;;19.10;48.70;19.80;102381.00;;;;4990503;28;20633;-48
2022/03/22 09:25:12;;;;;;;9.57;5.67;;;19.10;48.70;19.80;102377.00;;;;4989135;28;20239;-48
2022/03/22 09:27:43;;;;;;;9.97;5.60;;;19.10;48.70;19.70;102361.00;;;;4989445;28;20607;-48
2022/03/22 09:30:10;;;;;;;11.53;5.70;;;19.10;48.70;19.70;102370.00;;;;4990030;28;20287;-50
2022/03/22 09:32:39;;;;;;;9.57;5.50;;;19.10;48.80;19.80;102366.00;;;;4988487;28;20310;-46
2022/03/22 09:35:07;;;;;;;10.83;5.57;;;19.10;48.80;19.70;102369.00;;;;4989656;28;20637;-46
2022/03/22 09:37:42;;;;;;;7.77;5.63;;;19.00;48.70;19.70;102362.00;;;;4990116;28;20567;-47
2022/03/22 09:40:09;;;;;;;8.57;5.60;;;19.00;48.80;19.70;102362.00;;;;4990323;28;20168;-49
2022/03/22 09:42:45;;;;;;;9.17;5.13;;;19.00;48.80;19.70;102361.00;;;;4989667;28;20172;-47
2022/03/22 09:45:14;;;;;;;12.87;5.60;;;19.00;48.80;19.70;102360.00;;;;4993312;28;20647;-47
2022/03/22 09:47:42;;;;;;;8.87;5.43;;;19.00;48.80;19.70;102362.00;;;;4989579;28;20210;-47
2022/03/22 09:50:10;;;;;;;7.23;5.30;;;19.00;48.90;19.70;102356.00;;;;4989920;28;20199;-47
2022/03/22 09:52:37;;;;;;;7.23;5.30;;;19.00;48.90;19.70;102353.00;;;;4989911;28;20556;-48
2022/03/22 09:55:04;;;;;;;6.80;5.20;;;19.00;49.00;19.70;102353.00;;;;4998303;28;20179;-48
2022/03/22 09:57:30;;;;;;;9.27;5.80;;;19.00;49.00;19.70;102355.00;;;;5009518;28;20558;-49
2022/03/22 09:59:56;;;;;;;7.77;5.40;;;19.00;49.00;19.70;102354.00;;;;4834449;28;20175;-47
2022/03/22 10:02:32;;;;;;;7.87;5.33;;;18.90;49.00;19.70;102339.00;;;;4989447;28;20175;-47
2022/03/22 10:04:58;;;;;;;7.20;5.50;;;19.00;49.20;19.70;102350.00;;;;4989959;28;20659;-47
2022/03/22 10:07:23;;;;;;;8.03;5.63;;;19.00;49.20;19.70;102346.00;;;;4989296;28;20235;-47
2022/03/22 10:10:05;;;;;;;8.17;5.87;;;19.00;49.30;19.70;102347.00;;;;4988454;28;20226;-48
2022/03/22 10:12:35;;;;;;;7.87;5.30;;;19.00;49.40;19.70;102339.00;;;;4989556;28;20298;-46
2022/03/22 10:15:08;;;;;;;7.03;5.50;;;19.00;49.40;19.70;102341.00;;;;4989089;28;20332;-48
2022/03/22 10:17:34;;;;;;;7.13;5.10;;;19.00;49.40;19.70;102336.00;;;;4989456;28;20766;-47
2022/03/22 10:20:00;;;;;;;7.37;4.93;;;19.00;49.40;19.70;102336.00;;;;4988595;28;20214;-47
2022/03/22 10:22:26;;;;;;;12.03;5.70;;;19.00;49.40;19.70;102330.00;;;;4990130;28;20174;-47
2022/03/22 10:24:56;;;;;;;9.83;5.73;;;19.00;50.10;19.70;102337.00;;;;4990425;28;20186;-47
2022/03/22 10:27:29;;;;;;;9.00;5.30;;;19.00;50.00;19.70;102332.00;;;;4989579;28;20201;-45
2022/03/22 10:30:00;;;;;;;8.53;5.10;;;19.00;50.50;19.70;102331.00;;;;4989741;28;20501;-45
2022/03/22 10:32:41;;;;;;;8.37;5.07;;;19.00;49.70;19.70;102326.00;;;;4988559;28;20203;-46
2022/03/22 10:35:13;;;;;;;8.20;5.17;;;19.00;49.60;19.60;102322.00;;;;4992107;28;20202;-47
2022/03/22 10:37:42;;;;;;;8.27;5.60;;;19.00;49.50;19.70;102329.00;;;;4990876;28;20192;-47
2022/03/22 10:40:43;;;;;;;8.87;5.50;;;19.00;49.40;19.70;102317.00;;;;4989305;28;20176;-47
2022/03/22 10:43:25;;;;;;;6.63;4.80;;;19.00;49.40;19.70;102320.00;;;;4989080;28;20324;-45
2022/03/22 10:46:01;;;;;;;7.10;5.03;;;19.00;49.40;19.70;102315.00;;;;4989340;28;20181;-46
2022/03/22 10:48:33;;;;;;;8.43;5.03;;;19.00;49.70;19.70;102315.00;;;;4989176;28;20211;-46
2022/03/22 10:50:59;;;;;;;7.07;4.83;;;18.90;49.50;19.70;102321.00;;;;4988750;28;20165;-47
2022/03/22 10:53:27;;;;;;;7.13;4.83;;;19.00;50.20;19.70;102314.00;;;;4988561;28;20235;-47
2022/03/22 10:55:53;;;;;;;6.30;4.83;;;19.00;49.40;19.70;102313.00;;;;4988954;28;20625;-47
2022/03/22 10:58:25;;;;;;;6.23;4.70;;;19.00;49.40;19.70;102311.00;;;;4987976;28;20201;-45
2022/03/22 11:00:52;;;;;;;5.93;4.77;;;19.00;49.40;19.70;102309.00;;;;4781457;28;20610;-46
2022/03/22 11:03:18;;;;;;;6.63;5.03;;;19.00;49.40;19.70;102314.00;;;;4988789;28;20187;-46
2022/03/22 11:05:53;;;;;;;5.83;4.87;;;19.00;49.40;19.70;102305.00;;;;4989232;28;20209;-46
2022/03/22 11:08:20;;;;;;;6.77;5.10;;;19.00;49.40;19.70;102303.00;;;;4988825;28;20203;-45
2022/03/22 11:10:46;;;;;;;5.43;4.63;;;19.00;49.40;19.70;102302.00;;;;4988354;28;20214;-46
2022/03/22 11:13:11;;;;;;;5.90;4.50;;;19.00;49.40;19.70;102299.00;;;;4987921;28;20652;-46